createdAt,value
2022-11-17T00:03:35.229Z,1.95
2022-11-17T00:08:38.074Z,3.53
2022-11-17T00:13:55.799Z,10.57
2022-11-17T00:19:15.785Z,4.57
2022-11-17T00:24:18.331Z,3.13
2022-11-17T00:29:22.526Z,5.35
2022-11-17T00:39:27.364Z,1.98
2022-11-17T00:44:31.528Z,1.73
2022-11-17T00:59:42.888Z,3.15
2022-11-17T01:04:45.450Z,3.40
2022-11-17T01:09:48.186Z,4.22
2022-11-17T01:14:59.522Z,4.25
2022-11-17T01:20:02.488Z,6.45
2022-11-17T01:25:06.027Z,4.40
2022-11-17T01:30:20.266Z,7.03
2022-11-17T01:40:25.033Z,4.13
2022-11-17T01:45:39.216Z,5.55
2022-11-17T01:55:45.200Z,5.40
2022-11-17T02:00:55.369Z,2.75
2022-11-17T02:06:02.074Z,1.73
2022-11-17T02:11:07.130Z,3.97
2022-11-17T02:16:13.596Z,1.48
2022-11-17T02:21:30.964Z,1.42
2022-11-17T02:27:00.397Z,2.08
2022-11-17T02:32:06.364Z,3.80
2022-11-17T02:37:12.582Z,0.50
2022-11-17T02:42:17.488Z,2.33
2022-11-17T02:47:23.431Z,3.22
2022-11-17T02:52:26.752Z,2.55
2022-11-17T02:57:29.877Z,3.43
2022-11-17T03:02:39.413Z,0.80
2022-11-17T03:07:49.486Z,2.40
2022-11-17T03:12:55.010Z,4.05
2022-11-17T03:18:04.433Z,1.92
2022-11-17T03:23:09.462Z,3.15
2022-11-17T03:28:13.642Z,2.58
2022-11-17T03:33:21.508Z,3.58
2022-11-17T03:38:25.751Z,2.05
2022-11-17T03:48:35.056Z,1.63
2022-11-17T03:53:38.040Z,4.20
2022-11-17T03:58:43.186Z,1.30
2022-11-17T04:03:47.117Z,2.13
2022-11-17T04:08:49.572Z,4.03
2022-11-17T04:14:14.249Z,1.35
2022-11-17T04:19:18.231Z,0.80
2022-11-17T04:24:21.197Z,3.38
2022-11-17T04:29:23.801Z,1.55
2022-11-17T04:34:28.133Z,0.40
2022-11-17T04:39:30.677Z,1.23
2022-11-17T04:44:33.347Z,2.35
2022-11-17T04:49:37.702Z,1.02
2022-11-17T04:54:41.393Z,0.77
2022-11-17T04:59:43.935Z,2.03
2022-11-17T05:04:56.822Z,0.60
2022-11-17T05:09:59.336Z,3.08
2022-11-17T05:15:01.775Z,1.92
2022-11-17T05:20:06.258Z,0.45
2022-11-17T05:25:10.012Z,3.20
2022-11-17T05:30:13.263Z,1.50
2022-11-17T05:35:17.301Z,1.30
2022-11-17T05:40:20.074Z,2.15
2022-11-17T05:45:30.691Z,0.28
2022-11-17T05:50:36.521Z,2.80
2022-11-17T05:55:39.085Z,2.17
2022-11-17T06:00:42.380Z,1.27
2022-11-17T06:05:46.318Z,3.83
2022-11-17T06:10:48.981Z,3.65
2022-11-17T06:15:51.482Z,3.47
2022-11-17T06:20:55.721Z,2.58
2022-11-17T06:25:58.543Z,4.50
2022-11-17T06:31:02.548Z,0.30
2022-11-17T06:36:07.991Z,0.65
2022-11-17T06:41:12.335Z,2.17
2022-11-17T06:46:15.245Z,3.88
2022-11-17T06:51:19.171Z,4.45
2022-11-17T06:56:22.170Z,6.22
2022-11-17T07:01:24.821Z,3.03
2022-11-17T07:06:29.350Z,5.60
2022-11-17T07:11:34.980Z,1.38
2022-11-17T07:16:37.585Z,0.77
2022-11-17T07:21:41.771Z,4.35
2022-11-17T07:26:44.520Z,4.63
2022-11-17T07:31:47.058Z,0.52
2022-11-17T07:36:51.805Z,4.13
2022-11-17T07:41:56.755Z,1.13
2022-11-17T07:46:59.459Z,3.05
2022-11-17T07:52:03.346Z,0.85
2022-11-17T07:57:05.905Z,2.55
2022-11-17T08:02:09.721Z,3.42
2022-11-17T08:12:16.751Z,2.08
2022-11-17T08:17:19.613Z,4.57
2022-11-17T08:22:22.542Z,4.70
2022-11-17T08:27:26.888Z,5.55
2022-11-17T08:32:29.950Z,5.30
2022-11-17T08:37:32.745Z,5.82
2022-11-17T08:42:36.677Z,2.45
2022-11-17T08:47:39.293Z,10.95
2022-11-17T08:52:42.111Z,1.27
2022-11-17T08:57:56.114Z,7.15
2022-11-17T09:02:58.681Z,4.53
2022-11-17T09:08:22.398Z,4.00
2022-11-17T09:13:25.357Z,3.75
2022-11-17T09:18:28.217Z,5.93
2022-11-17T09:23:31.718Z,5.03
2022-11-17T09:28:36.100Z,4.43
2022-11-17T09:33:39.505Z,4.72
2022-11-17T09:38:42.367Z,5.07
2022-11-17T09:48:52.895Z,2.55
2022-11-17T09:53:58.529Z,3.58
2022-11-17T09:59:04.262Z,5.60
2022-11-17T10:04:12.518Z,3.38
2022-11-17T10:09:24.189Z,7.82
2022-11-17T10:14:29.120Z,4.47
2022-11-17T10:19:34.884Z,5.47
2022-11-17T10:24:38.667Z,3.35
2022-11-17T10:29:41.348Z,3.15
2022-11-17T10:34:46.399Z,4.88
2022-11-17T10:39:49.113Z,4.00
2022-11-17T10:44:53.317Z,2.67
2022-11-17T10:50:09.037Z,4.72
2022-11-17T10:55:18.708Z,2.50
2022-11-17T11:00:26.364Z,3.53
2022-11-17T11:05:30.932Z,2.33
2022-11-17T11:10:35.532Z,1.17
2022-11-17T11:15:40.160Z,1.65
2022-11-17T11:20:47.109Z,4.60
2022-11-17T11:25:52.373Z,1.58
2022-11-17T11:31:00.171Z,1.25
2022-11-17T11:36:20.381Z,2.28
2022-11-17T11:41:36.571Z,0.80
2022-11-17T11:46:43.826Z,1.23
2022-11-17T11:51:49.804Z,1.17
2022-11-17T11:56:54.457Z,1.33
2022-11-17T12:02:02.743Z,2.42
2022-11-17T12:07:08.677Z,2.00
2022-11-17T12:12:16.674Z,1.38
2022-11-17T12:17:23.556Z,0.75
2022-11-17T12:22:50.654Z,1.05
2022-11-17T12:27:54.686Z,1.67
2022-11-17T12:32:58.504Z,2.05
2022-11-17T12:38:29.581Z,2.08
2022-11-17T12:43:34.282Z,2.42
2022-11-17T12:48:38.068Z,2.67
2022-11-17T12:58:49.965Z,0.47
2022-11-17T13:03:55.782Z,1.27
2022-11-17T13:08:58.890Z,3.60
2022-11-17T13:14:10.391Z,5.13
2022-11-17T13:19:33.140Z,3.53
2022-11-17T13:24:36.553Z,0.57
2022-11-17T13:29:40.429Z,3.63
2022-11-17T13:39:55.313Z,1.60
2022-11-17T13:45:03.636Z,2.22
2022-11-17T13:50:21.066Z,1.92
2022-11-17T13:55:24.112Z,2.50
2022-11-17T14:00:28.821Z,2.85
2022-11-17T14:05:32.586Z,5.07
2022-11-17T14:10:39.421Z,1.10
2022-11-17T14:15:47.861Z,2.33
2022-11-17T14:21:05.387Z,2.70
2022-11-17T14:26:14.882Z,1.20
2022-11-17T14:31:22.270Z,5.43
2022-11-17T14:36:25.672Z,5.70
2022-11-17T14:41:28.917Z,4.20
2022-11-17T14:46:33.068Z,5.13
2022-11-17T14:51:38.080Z,5.22
2022-11-17T14:56:40.582Z,8.02
2022-11-17T15:01:44.689Z,5.40
2022-11-17T15:11:52.024Z,4.15
2022-11-17T15:16:56.429Z,3.70
2022-11-17T15:21:59.017Z,4.90
2022-11-17T15:27:01.852Z,4.57
2022-11-17T15:32:06.523Z,4.95
2022-11-17T15:37:09.113Z,5.15
2022-11-17T15:42:15.633Z,1.25
2022-11-17T15:47:19.521Z,2.45
2022-11-17T15:52:41.511Z,19.15
2022-11-17T15:57:53.879Z,21.67
2022-11-17T16:02:59.783Z,7.85
2022-11-17T16:08:02.470Z,7.88
2022-11-17T16:13:05.025Z,14.07
2022-11-17T16:18:08.920Z,10.10
2022-11-17T16:23:11.514Z,9.82
2022-11-17T16:28:14.818Z,10.38
2022-11-17T16:33:18.761Z,6.65
2022-11-17T16:38:21.268Z,16.65
2022-11-17T16:43:23.751Z,5.75
2022-11-17T16:48:27.679Z,13.20
2022-11-17T16:53:30.465Z,9.27
2022-11-17T16:58:33.065Z,10.23
2022-11-17T17:03:38.008Z,3.35
2022-11-17T17:08:40.754Z,25.60
2022-11-17T17:13:43.985Z,16.50
2022-11-17T17:18:47.971Z,12.73
2022-11-17T17:23:50.509Z,13.13
2022-11-17T17:28:54.894Z,2.90
2022-11-17T17:33:59.878Z,7.10
2022-11-17T17:39:02.743Z,11.45
2022-11-17T17:44:06.518Z,3.90
2022-11-17T17:49:10.926Z,14.40
2022-11-17T17:54:15.584Z,32.55
2022-11-17T17:59:18.935Z,13.95
2022-11-17T18:04:23.241Z,13.82
2022-11-17T18:09:26.674Z,11.20
2022-11-17T18:14:29.203Z,10.43
2022-11-17T18:19:33.584Z,7.07
2022-11-17T18:24:36.537Z,10.23
2022-11-17T18:29:39.068Z,9.45
2022-11-17T18:34:42.905Z,2.75
2022-11-17T18:39:45.441Z,12.73
2022-11-17T18:44:47.963Z,12.98
2022-11-17T18:49:51.944Z,17.70
2022-11-17T18:54:54.478Z,10.10
2022-11-17T18:59:57.058Z,16.42
2022-11-17T19:05:00.964Z,33.60
2022-11-17T19:10:03.641Z,34.75
2022-11-17T19:15:06.620Z,67.75
2022-11-17T19:20:13.474Z,22.77
2022-11-17T19:25:16.170Z,25.08
2022-11-17T19:30:19.149Z,19.60
2022-11-17T19:35:23.035Z,27.95
2022-11-17T19:40:25.605Z,18.55
2022-11-17T19:45:28.212Z,24.88
2022-11-17T19:50:33.757Z,8.88
2022-11-17T19:55:36.331Z,12.57
2022-11-17T20:00:40.233Z,15.23
2022-11-17T20:05:44.220Z,25.33
2022-11-17T20:10:47.116Z,19.85
2022-11-17T20:15:56.577Z,11.27
2022-11-17T20:21:00.657Z,22.77
2022-11-17T20:26:04.093Z,26.70
2022-11-17T20:31:08.044Z,30.63
2022-11-17T20:36:13.231Z,6.72
2022-11-17T20:41:15.976Z,19.65
2022-11-17T20:46:21.705Z,22.35
2022-11-17T20:51:26.092Z,24.42
2022-11-17T20:56:29.089Z,12.05
2022-11-17T21:01:32.251Z,15.05
2022-11-17T21:06:36.404Z,12.07
2022-11-17T21:17:00.450Z,5.65
2022-11-17T21:22:04.569Z,11.40
2022-11-17T21:27:07.582Z,5.85
2022-11-17T21:32:10.315Z,7.13
2022-11-17T21:37:14.297Z,9.00
2022-11-17T21:42:16.951Z,1.80
2022-11-17T21:47:21.507Z,5.28
2022-11-17T21:52:25.971Z,2.90
2022-11-17T21:57:28.614Z,5.28
2022-11-17T22:02:31.222Z,1.67
2022-11-17T22:07:35.418Z,1.77
2022-11-17T22:12:38.097Z,5.20
2022-11-17T22:17:40.950Z,3.13
2022-11-17T22:22:45.454Z,3.63
2022-11-17T22:27:48.049Z,3.25
2022-11-17T22:32:50.959Z,2.55
2022-11-17T22:37:54.949Z,3.97
2022-11-17T22:43:01.006Z,3.10
2022-11-17T22:48:07.382Z,3.22
2022-11-17T22:53:11.306Z,2.65
2022-11-17T22:58:15.994Z,0.75
2022-11-17T23:03:18.616Z,1.50
2022-11-17T23:08:22.557Z,1.70
2022-11-17T23:13:25.124Z,1.23
2022-11-17T23:18:27.715Z,1.80
2022-11-17T23:23:34.122Z,0.90
2022-11-17T23:28:36.768Z,1.83
2022-11-17T23:33:40.180Z,0.57
2022-11-17T23:38:44.227Z,2.20
2022-11-17T23:43:56.753Z,3.33
2022-11-17T23:48:59.324Z,1.75
2022-11-17T23:54:03.802Z,17.85
2022-11-17T23:59:06.988Z,7.10
